Time;durP1;ratioP1;P1;durP2;ratioP2;P2;SDS_P1;SDS_P2;PMS_P1;PMS_P2;Temp;Humidity;BMP_temperature;BMP_pressure;BME280_temperature;BME280_humidity;BME280_pressure;Samples;Min_cycle;Max_cycle;Signal;HPM_P1;HPM_P2
2022/11/09 00:04:29;;;;;;;34.23;19.67;;;;;;;8.89;100.00;100249.29;3500609;84;26367;-89
2022/11/09 00:09:29;;;;;;;30.77;18.30;;;;;;;8.87;100.00;100253.56;3486050;84;98913;-88
2022/11/09 00:14:30;;;;;;;29.37;17.87;;;;;;;8.85;100.00;100251.22;3487568;84;32519;-88
2022/11/09 00:19:31;;;;;;;33.57;18.50;;;;;;;8.82;100.00;100260.73;3472350;82;98868;-89
2022/11/09 00:24:32;;;;;;;33.00;18.55;;;;;;;8.81;100.00;100261.91;3475508;84;32536;-88
2022/11/09 00:29:33;;;;;;;30.57;17.82;;;;;;;8.82;100.00;100267.60;3479393;84;98990;-89
2022/11/09 00:34:33;;;;;;;30.07;17.77;;;;;;;8.82;100.00;100259.37;3504168;83;25998;-89
2022/11/09 00:39:34;;;;;;;30.20;18.53;;;;;;;8.84;100.00;100272.93;3494923;84;98975;-88
2022/11/09 00:44:35;;;;;;;32.70;18.97;;;;;;;8.86;100.00;100268.45;3509059;83;25984;-89
2022/11/09 00:49:36;;;;;;;33.53;19.17;;;;;;;8.86;100.00;100264.34;3499993;83;98894;-88
2022/11/09 00:54:36;;;;;;;31.53;18.03;;;;;;;8.84;100.00;100264.70;3506745;83;26477;-89
2022/11/09 00:59:37;;;;;;;34.05;17.55;;;;;;;8.86;100.00;100258.84;3504390;82;98922;-89
2022/11/09 01:04:38;;;;;;;31.30;17.60;;;;;;;8.85;100.00;100252.59;3504662;83;33246;-88
2022/11/09 01:09:39;;;;;;;29.93;17.17;;;;;;;8.87;100.00;100263.17;3502036;84;98939;-89
2022/11/09 01:14:39;;;;;;;30.27;18.73;;;;;;;8.87;100.00;100249.45;3506767;83;33428;-89
2022/11/09 01:19:41;;;;;;;33.73;18.20;;;;;;;8.88;100.00;100264.19;3505138;83;99004;-89
2022/11/09 01:24:41;;;;;;;32.43;17.67;;;;;;;8.88;100.00;100246.94;3508900;82;33249;-89
2022/11/09 01:29:42;;;;;;;31.03;17.73;;;;;;;8.87;100.00;100237.09;3491997;83;98928;-89
2022/11/09 01:34:43;;;;;;;31.87;18.27;;;;;;;8.89;100.00;100234.80;3514527;83;33222;-88
2022/11/09 01:39:44;;;;;;;29.70;17.93;;;;;;;8.89;100.00;100224.59;3508585;83;98814;-90
2022/11/09 01:44:45;;;;;;;33.48;18.35;;;;;;;8.89;100.00;100229.31;3520869;82;33490;-90
2022/11/09 01:49:57;;;;;;;31.77;17.77;;;;;;;8.89;100.00;100231.45;3507767;82;98773;-90
2022/11/09 01:55:06;;;;;;;31.68;17.12;;;;;;;8.89;100.00;100225.97;3521104;82;33789;-90
2022/11/09 02:00:11;;;;;;;30.68;18.52;;;;;;;8.87;100.00;100226.92;3512780;82;98994;-89
2022/11/09 02:05:17;;;;;;;31.77;19.98;;;;;;;8.86;100.00;100228.09;3519245;82;32751;-89
2022/11/09 02:10:46;;;;;;;28.27;17.77;;;;;;;8.84;100.00;100222.17;3509094;82;99024;-89
2022/11/09 02:15:49;;;;;;;29.50;17.70;;;;;;;8.81;100.00;100217.44;3514408;82;31440;-89
2022/11/09 02:20:53;;;;;;;32.80;18.37;;;;;;;8.80;100.00;100224.09;3510437;82;98565;-90
2022/11/09 02:25:59;;;;;;;31.07;17.82;;;;;;;8.77;100.00;100235.02;3511801;82;31439;-89
2022/11/09 02:31:01;;;;;;;34.23;19.42;;;;;;;8.72;100.00;100233.36;3510462;82;98908;-90
2022/11/09 02:36:02;;;;;;;29.35;16.42;;;;;;;8.70;100.00;100234.89;3499784;84;33745;-89
2022/11/09 02:41:03;;;;;;;31.87;17.73;;;;;;;8.67;100.00;100230.16;3509193;82;98715;-88
2022/11/09 02:46:05;;;;;;;36.53;19.37;;;;;;;8.49;100.00;100191.47;3522404;82;31672;-89
2022/11/09 02:51:05;;;;;;;29.87;18.05;;;;;;;8.49;100.00;100191.47;3519720;84;98689;-89
2022/11/09 02:56:06;;;;;;;32.80;17.90;;;;;;;8.57;100.00;100215.69;3522701;82;31691;-89
2022/11/09 03:01:07;;;;;;;33.27;19.33;;;;;;;8.54;100.00;100216.41;3521066;82;98891;-89
2022/11/09 03:06:08;;;;;;;37.53;21.30;;;;;;;8.53;100.00;100217.58;3525961;82;31609;-89
2022/11/09 03:11:09;;;;;;;35.27;19.27;;;;;;;8.51;100.00;100222.05;3510702;84;98839;-89
2022/11/09 03:16:10;;;;;;;36.17;18.57;;;;;;;8.49;100.00;100216.72;3523867;82;31662;-89
2022/11/09 03:21:10;;;;;;;33.15;19.10;;;;;;;8.48;100.00;100218.69;3522507;82;32222;-90
2022/11/09 03:26:11;;;;;;;30.70;17.77;;;;;;;8.49;100.00;100214.78;3520267;82;99195;-86
2022/11/09 03:31:13;;;;;;;32.97;19.20;;;;;;;8.49;100.00;100218.90;3526575;82;26636;-88
2022/11/09 03:36:14;;;;;;;35.50;17.90;;;;;;;8.49;100.00;100212.61;3505232;82;98743;-89
2022/11/09 03:41:15;;;;;;;31.33;17.77;;;;;;;8.50;100.00;100212.84;3510379;82;25814;-89
2022/11/09 03:46:15;;;;;;;31.57;17.60;;;;;;;8.52;100.00;100228.34;3503187;83;99067;-90
2022/11/09 03:51:16;;;;;;;35.73;18.83;;;;;;;8.52;100.00;100214.63;3505682;84;34876;-89
2022/11/09 03:56:17;;;;;;;33.97;18.33;;;;;;;8.53;100.00;100201.12;3495529;83;99001;-89
2022/11/09 04:01:18;;;;;;;32.70;18.73;;;;;;;8.54;100.00;100202.70;3511679;82;34929;-90
2022/11/09 04:06:18;;;;;;;33.00;17.27;;;;;;;8.53;100.00;100205.23;3503869;83;99173;-90
2022/11/09 04:11:19;;;;;;;33.42;18.48;;;;;;;8.54;100.00;100197.21;3503834;83;34895;-90
2022/11/09 04:16:20;;;;;;;36.17;18.60;;;;;;;8.51;100.00;100194.62;3497308;83;99092;-90
2022/11/09 04:21:21;;;;;;;33.97;19.20;;;;;;;8.52;100.00;100195.43;3503914;83;26461;-89
2022/11/09 04:26:22;;;;;;;32.00;17.40;;;;;;;8.51;100.00;100196.59;3504100;83;99081;-89
2022/11/09 04:31:22;;;;;;;30.00;17.97;;;;;;;8.48;100.00;100184.98;3504667;83;33115;-89
2022/11/09 04:36:24;;;;;;;31.27;17.67;;;;;;;8.46;100.00;100182.59;3506206;83;99077;-90
2022/11/09 04:41:27;;;;;;;32.73;19.00;;;;;;;8.44;100.00;100182.75;3515797;82;33009;-90
2022/11/09 04:46:28;;;;;;;32.97;18.33;;;;;;;8.41;100.00;100174.68;3510200;82;99153;-89
2022/11/09 04:51:28;;;;;;;34.47;19.23;;;;;;;8.40;100.00;100185.44;3524896;82;33022;-90
2022/11/09 04:56:29;;;;;;;30.87;17.47;;;;;;;8.38;100.00;100183.66;3512365;82;99107;-90
2022/11/09 05:01:30;;;;;;;34.73;21.60;;;;;;;8.36;100.00;100181.07;3520115;82;32509;-89
2022/11/09 05:06:31;;;;;;;36.23;18.92;;;;;;;8.32;100.00;100180.22;3513735;83;99180;-88
2022/11/09 05:11:33;;;;;;;35.90;18.37;;;;;;;8.27;100.00;100171.73;3517532;82;32494;-89
2022/11/09 05:16:34;;;;;;;32.53;17.77;;;;;;;8.25;100.00;100185.59;3513932;82;98986;-89
2022/11/09 05:21:34;;;;;;;35.90;18.33;;;;;;;8.21;100.00;100186.91;3515753;83;26267;-89
2022/11/09 05:26:38;;;;;;;35.07;19.33;;;;;;;8.17;100.00;100184.65;3511140;82;99098;-90
2022/11/09 05:31:41;;;;;;;34.70;18.95;;;;;;;8.14;100.00;100177.17;3521186;82;31711;-91
2022/11/09 05:36:42;;;;;;;37.48;19.92;;;;;;;8.10;100.00;100183.17;3467246;83;98939;-90
2022/11/09 05:41:43;;;;;;;39.67;18.47;;;;;;;8.07;100.00;100194.08;3508623;83;25851;-90
2022/11/09 05:46:43;;;;;;;36.80;19.20;;;;;;;8.02;100.00;100184.19;3503758;83;99098;-90
2022/11/09 05:51:44;;;;;;;32.93;17.83;;;;;;;8.00;100.00;100185.14;3505521;83;25830;-90
2022/11/09 05:56:45;;;;;;;37.33;18.03;;;;;;;7.95;100.00;100170.94;3501958;83;99066;-90
2022/11/09 06:01:46;;;;;;;33.77;18.03;;;;;;;7.92;100.00;100178.54;3507868;82;26589;-89
2022/11/09 06:06:46;;;;;;;35.60;16.85;;;;;;;7.88;100.00;100181.22;3504969;82;99166;-90
2022/11/09 06:11:49;;;;;;;34.18;19.57;;;;;;;7.85;100.00;100174.31;3512687;82;26191;-90
2022/11/09 06:16:50;;;;;;;32.20;17.20;;;;;;;7.82;100.00;100177.77;3505360;82;98986;-90
2022/11/09 06:21:51;;;;;;;39.33;20.97;;;;;;;7.78;100.00;100176.34;3509850;82;33457;-90
2022/11/09 06:26:51;;;;;;;38.80;18.87;;;;;;;7.76;100.00;100179.23;3509476;82;99262;-89
2022/11/09 06:31:52;;;;;;;41.57;20.63;;;;;;;7.74;100.00;100171.96;3519311;82;33465;-89
2022/11/09 06:36:53;;;;;;;35.43;20.13;;;;;;;7.73;100.00;100184.05;3475046;83;99038;-90
2022/11/09 06:41:54;;;;;;;33.57;18.13;;;;;;;7.72;100.00;100183.27;3470102;84;33267;-90
2022/11/09 06:46:55;;;;;;;38.37;21.80;;;;;;;7.73;100.00;100197.74;3469508;84;99139;-91
2022/11/09 06:51:56;;;;;;;38.40;21.97;;;;;;;7.75;100.00;100207.19;3440855;84;33350;-91
2022/11/09 06:56:57;;;;;;;39.60;21.10;;;;;;;7.76;100.00;100233.45;3462728;84;99047;-90
2022/11/09 07:01:58;;;;;;;38.33;18.30;;;;;;;7.78;100.00;100224.84;3474219;84;32015;-91
2022/11/09 07:06:59;;;;;;;41.80;21.60;;;;;;;7.84;100.00;100217.34;3470763;84;98961;-90
2022/11/09 07:11:59;;;;;;;45.30;22.03;;;;;;;7.91;100.00;100211.22;3481475;84;32841;-89
2022/11/09 07:17:01;;;;;;;41.93;21.30;;;;;;;7.98;100.00;100217.61;3467592;84;98987;-90
2022/11/09 07:22:02;;;;;;;41.88;21.93;;;;;;;8.10;100.00;100222.91;3475590;84;32253;-89
2022/11/09 07:27:03;;;;;;;44.97;22.90;;;;;;;8.22;100.00;100234.28;3476710;83;99186;-90
2022/11/09 07:32:04;;;;;;;42.27;21.43;;;;;;;8.38;100.00;100248.66;3448560;84;32786;-90
2022/11/09 07:37:05;;;;;;;35.27;19.53;;;;;;;8.56;100.00;100237.42;3498898;82;99036;-91
2022/11/09 07:42:06;;;;;;;38.43;20.70;;;;;;;8.70;100.00;100220.60;3510744;82;32172;-91
2022/11/09 07:47:07;;;;;;;38.65;19.77;;;;;;;8.86;100.00;100215.75;3503984;82;99033;-91
2022/11/09 07:52:09;;;;;;;37.20;19.82;;;;;;;9.02;100.00;100221.86;3511254;82;31785;-90
2022/11/09 07:57:10;;;;;;;33.80;19.03;;;;;;;9.18;100.00;100217.55;3503201;82;99149;-89
2022/11/09 08:02:11;;;;;;;36.67;20.03;;;;;;;9.36;100.00;100217.19;3507672;84;28230;-90
2022/11/09 08:07:11;;;;;;;44.03;19.57;;;;;;;9.54;100.00;100198.38;3499641;83;99231;-89
2022/11/09 08:12:12;;;;;;;33.37;17.93;;;;;;;9.70;100.00;100211.31;3507819;83;35615;-91
2022/11/09 08:17:13;;;;;;;33.20;18.97;;;;;;;9.86;100.00;100198.14;3503712;83;99286;-90
2022/11/09 08:22:14;;;;;;;37.20;17.43;;;;;;;10.02;100.00;100217.94;3509646;82;34815;-89
2022/11/09 08:27:15;;;;;;;30.40;18.13;;;;;;;10.16;100.00;100218.69;3503444;82;99421;-89
2022/11/09 08:32:15;;;;;;;32.00;16.65;;;;;;;10.30;100.00;100214.70;3508903;82;34863;-89
2022/11/09 08:37:16;;;;;;;28.50;16.03;;;;;;;10.42;100.00;100222.06;3504926;82;99425;-90
2022/11/09 08:42:17;;;;;;;30.33;16.57;;;;;;;10.54;100.00;100224.53;3513624;82;28204;-89
2022/11/09 08:47:18;;;;;;;33.50;16.97;;;;;;;10.66;100.00;100226.98;3505678;82;99453;-90
2022/11/09 08:52:18;;;;;;;28.60;17.50;;;;;;;10.81;100.00;100234.17;3512292;82;25932;-90
2022/11/09 08:57:20;;;;;;;32.63;16.83;;;;;;;10.81;100.00;100234.17;3511262;82;99333;-88
2022/11/09 09:02:21;;;;;;;30.33;17.07;;;;;;;10.91;100.00;100237.56;3512894;82;32450;-87
2022/11/09 09:07:22;;;;;;;28.52;15.65;;;;;;;10.99;100.00;100251.59;3507496;82;99409;-87
2022/11/09 09:12:23;;;;;;;27.97;16.27;;;;;;;11.09;100.00;100242.61;3514343;82;32478;-87
2022/11/09 09:17:23;;;;;;;35.03;16.90;;;;;;;11.19;99.62;100232.25;3507108;82;99585;-88
2022/11/09 09:22:24;;;;;;;28.67;15.25;;;;;;;11.29;99.45;100241.13;3513061;82;32461;-89
2022/11/09 09:27:25;;;;;;;31.87;17.30;;;;;;;11.40;98.89;100248.09;3504939;82;99204;-88
2022/11/09 09:32:26;;;;;;;28.43;15.97;;;;;;;11.50;98.55;100253.64;3512732;82;26746;-88
2022/11/09 09:37:27;;;;;;;31.57;16.93;;;;;;;11.60;98.44;100257.06;3494176;83;99382;-88
2022/11/09 09:42:35;;;;;;;31.87;16.50;;;;;;;11.72;97.81;100247.66;3502158;83;25854;-89
2022/11/09 09:47:59;;;;;;;30.70;15.25;;;;;;;11.81;97.48;100243.94;3495449;83;99235;-89
2022/11/09 09:53:05;;;;;;;38.02;19.40;;;;;;;11.92;96.38;100244.75;3502198;83;33076;-90
2022/11/09 09:58:25;;;;;;;27.58;15.65;;;;;;;12.01;95.74;100249.31;3496019;83;99218;-90
2022/11/09 10:03:26;;;;;;;33.60;16.05;;;;;;;12.17;95.50;100255.27;3493667;83;32550;-88
2022/11/09 10:08:39;;;;;;;27.97;15.23;;;;;;;12.17;95.50;100255.27;3492040;83;99332;-88
2022/11/09 10:13:48;;;;;;;30.00;16.30;;;;;;;12.28;95.04;100253.31;3504520;83;33074;-87
2022/11/09 10:19:03;;;;;;;33.18;17.10;;;;;;;12.33;94.08;100261.20;3494208;83;99284;-90
2022/11/09 10:24:34;;;;;;;33.63;16.95;;;;;;;12.41;93.34;100266.91;3508926;83;32564;-87
2022/11/09 10:29:39;;;;;;;30.12;17.20;;;;;;;12.49;93.82;100261.61;3498844;83;99181;-87
2022/11/09 10:34:54;;;;;;;30.90;16.62;;;;;;;12.58;92.83;100268.89;3503488;83;28675;-89
2022/11/09 10:40:36;;;;;;;36.03;16.42;;;;;;;12.65;92.33;100277.20;3506787;82;99140;-89
2022/11/09 10:45:40;;;;;;;27.48;15.63;;;;;;;12.76;92.21;100282.13;3514628;82;33042;-90
2022/11/09 10:50:53;;;;;;;107.90;27.67;;;;;;;12.88;91.95;100281.73;3509418;82;99310;-89
2022/11/09 10:55:59;;;;;;;47.33;17.45;;;;;;;13.09;91.29;100283.12;3507562;82;33009;-88
2022/11/09 11:01:13;;;;;;;26.42;15.13;;;;;;;13.09;91.29;100283.12;3471103;83;99293;-88
2022/11/09 11:06:25;;;;;;;27.67;15.08;;;;;;;13.19;90.74;100278.17;3498294;83;99380;-88
2022/11/09 11:11:28;;;;;;;59.10;19.80;;;;;;;13.27;89.61;100280.53;3507141;83;33637;-88
2022/11/09 11:16:33;;;;;;;26.17;15.13;;;;;;;13.31;89.23;100283.27;3501135;83;99409;-89
2022/11/09 11:21:34;;;;;;;24.80;14.85;;;;;;;13.34;89.56;100281.08;3506273;83;32500;-87
2022/11/09 11:26:46;;;;;;;27.60;14.60;;;;;;;13.39;88.92;100277.33;3501545;83;99545;-89
2022/11/09 11:31:47;;;;;;;23.52;12.85;;;;;;;13.45;88.61;100256.38;3508040;83;32551;-89
2022/11/09 11:37:03;;;;;;;23.57;13.60;;;;;;;13.45;88.61;100256.38;3498695;82;99346;-88
2022/11/09 11:42:32;;;;;;;23.50;13.87;;;;;;;13.48;88.24;100264.47;3517821;82;27379;-89
2022/11/09 11:48:05;;;;;;;27.65;13.62;;;;;;;13.54;88.34;100276.69;3482551;82;99193;-89
2022/11/09 11:53:48;;;;;;;25.70;14.00;;;;;;;13.57;87.88;100268.38;3523746;82;33065;-87
2022/11/09 11:59:47;;;;;;;22.67;13.28;;;;;;;13.59;87.62;100274.89;3516358;82;99321;-88
2022/11/09 12:05:28;;;;;;;27.05;13.95;;;;;;;13.62;87.27;100265.20;3496210;83;33483;-89
2022/11/09 12:10:55;;;;;;;24.35;14.80;;;;;;;13.66;87.32;100254.13;3485704;83;99408;-89
2022/11/09 12:16:14;;;;;;;24.23;12.78;;;;;;;13.70;86.71;100268.73;3506522;83;32983;-88
2022/11/09 12:21:26;;;;;;;24.75;12.73;;;;;;;13.73;87.00;100255.50;3500127;83;32427;-90
2022/11/09 12:26:57;;;;;;;26.00;13.90;;;;;;;13.73;86.16;100245.20;3496870;83;99298;-87
2022/11/09 12:32:23;;;;;;;24.30;13.80;;;;;;;13.76;86.99;100256.05;3499011;83;32499;-86
2022/11/09 12:37:36;;;;;;;24.60;13.22;;;;;;;13.79;85.43;100253.88;3498945;83;99253;-88
2022/11/09 12:42:42;;;;;;;24.10;12.98;;;;;;;13.76;86.32;100254.09;3505795;83;33294;-87
2022/11/09 12:47:45;;;;;;;21.70;12.98;;;;;;;13.76;86.76;100231.16;3497093;83;99442;-88
2022/11/09 12:52:50;;;;;;;24.87;13.32;;;;;;;13.74;86.88;100246.77;3507799;83;33369;-89
2022/11/09 12:57:51;;;;;;;25.48;13.65;;;;;;;13.65;87.37;100238.14;3493459;84;99233;-89
2022/11/09 13:02:56;;;;;;;31.05;18.35;;;;;;;13.65;87.37;100238.14;3497710;83;32965;-89
2022/11/09 13:08:17;;;;;;;32.20;18.05;;;;;;;13.62;88.15;100229.25;3489619;83;99249;-88
2022/11/09 13:13:22;;;;;;;27.77;16.60;;;;;;;13.60;88.64;100263.44;3498675;83;32512;-88
2022/11/09 13:18:38;;;;;;;27.60;15.93;;;;;;;13.39;89.33;100237.83;3498891;83;99274;-89
2022/11/09 13:23:39;;;;;;;28.20;15.88;;;;;;;13.47;89.84;100255.38;3497000;83;32483;-88
2022/11/09 13:28:42;;;;;;;28.57;14.87;;;;;;;13.38;89.89;100263.32;3469085;83;99399;-89
2022/11/09 13:33:43;;;;;;;26.05;13.95;;;;;;;13.28;90.19;100246.75;3504359;83;32459;-88
2022/11/09 13:38:44;;;;;;;28.37;14.40;;;;;;;13.16;90.06;100226.45;3467082;83;99307;-88
2022/11/09 13:43:46;;;;;;;25.80;14.40;;;;;;;13.11;90.33;100227.66;3443003;84;26577;-88
2022/11/09 13:48:50;;;;;;;27.58;14.95;;;;;;;13.09;90.74;100229.25;3449193;84;99436;-88
2022/11/09 13:53:59;;;;;;;28.42;16.23;;;;;;;13.04;90.79;100232.41;3456432;84;32458;-88
2022/11/09 13:59:18;;;;;;;28.35;16.12;;;;;;;13.01;90.79;100238.14;3450875;84;99271;-87
2022/11/09 14:04:36;;;;;;;28.30;15.40;;;;;;;12.88;91.28;100248.00;3458992;84;32496;-88
2022/11/09 14:10:17;;;;;;;28.60;15.28;;;;;;;12.88;91.28;100248.00;3453234;84;99165;-88
2022/11/09 14:15:52;;;;;;;30.65;15.45;;;;;;;12.83;91.45;100261.41;3455025;84;33120;-89
2022/11/09 14:21:11;;;;;;;28.12;15.98;;;;;;;12.69;91.63;100257.27;3453213;84;99117;-86
2022/11/09 14:26:19;;;;;;;26.77;15.50;;;;;;;12.71;91.70;100257.67;3448892;84;102073;-86
2022/11/09 14:31:27;;;;;;;29.35;16.25;;;;;;;12.69;91.72;100251.73;3461842;84;33187;-86
2022/11/09 14:36:31;;;;;;;32.40;16.95;;;;;;;12.66;91.85;100245.06;3456496;84;99040;-87
2022/11/09 14:41:32;;;;;;;30.88;17.20;;;;;;;12.62;91.85;100249.79;3440750;84;32521;-86
2022/11/09 14:46:33;;;;;;;26.87;14.80;;;;;;;12.60;91.86;100263.78;3434355;84;99465;-86
2022/11/09 14:51:39;;;;;;;32.30;16.53;;;;;;;12.57;91.83;100260.42;3445105;84;26059;-88
2022/11/09 14:56:41;;;;;;;27.05;17.23;;;;;;;12.53;91.83;100272.84;3435474;84;99092;-88
2022/11/09 15:02:06;;;;;;;31.65;16.77;;;;;;;12.48;91.83;100276.00;3442604;84;32436;-87
2022/11/09 15:07:16;;;;;;;32.88;15.53;;;;;;;12.44;92.03;100271.66;3435676;84;99293;-85
2022/11/09 15:12:20;;;;;;;32.78;17.37;;;;;;;12.37;92.37;100269.67;3442891;84;32473;-87
2022/11/09 15:17:35;;;;;;;32.85;17.37;;;;;;;12.37;92.37;100269.67;3430824;84;99164;-86
2022/11/09 15:22:57;;;;;;;28.07;15.87;;;;;;;12.33;92.11;100277.77;3437283;84;28221;-86
2022/11/09 15:28:13;;;;;;;38.40;21.95;;;;;;;12.26;92.14;100275.77;3433186;84;99224;-87
2022/11/09 15:33:24;;;;;;;35.03;21.52;;;;;;;12.21;92.26;100280.30;3443189;84;32429;-86
2022/11/09 15:38:42;;;;;;;43.10;24.17;;;;;;;12.15;92.26;100270.82;3432083;84;99235;-86
2022/11/09 15:43:43;;;;;;;38.20;21.17;;;;;;;12.08;92.38;100257.59;3438497;84;30896;-87
2022/11/09 15:48:44;;;;;;;38.60;21.60;;;;;;;12.01;92.49;100261.73;3439225;84;99354;-87
2022/11/09 15:53:45;;;;;;;40.03;20.90;;;;;;;11.94;92.54;100265.25;3446241;84;32998;-88
2022/11/09 15:58:48;;;;;;;43.33;22.27;;;;;;;11.86;92.59;100254.59;3447057;84;99118;-87
2022/11/09 16:03:51;;;;;;;43.23;24.02;;;;;;;11.80;92.71;100257.53;3446981;84;32385;-87
2022/11/09 16:08:52;;;;;;;39.23;24.10;;;;;;;11.73;92.70;100255.52;3395118;86;99194;-88
2022/11/09 16:13:53;;;;;;;36.50;21.17;;;;;;;11.69;92.64;100262.21;3509387;82;26795;-88
2022/11/09 16:18:55;;;;;;;40.07;22.17;;;;;;;11.63;92.70;100259.05;3505764;82;99138;-88
2022/11/09 16:23:56;;;;;;;39.33;23.25;;;;;;;11.60;92.76;100264.53;3507911;82;32499;-87
2022/11/09 16:28:57;;;;;;;36.60;20.77;;;;;;;11.55;92.79;100269.03;3509720;82;99291;-87
2022/11/09 16:33:58;;;;;;;34.07;18.50;;;;;;;11.50;92.97;100274.91;3511602;82;26758;-88
2022/11/09 16:44:20;;;;;;;41.50;23.33;;;;;;;11.44;93.45;100284.73;3849200;74;26362;-89
2022/11/09 16:49:21;;;;;;;41.83;22.60;;;;;;;11.34;93.44;100285.45;3640555;76;99090;-89
2022/11/09 16:54:21;;;;;;;43.67;25.30;;;;;;;11.28;93.59;100287.00;3562544;82;26532;-89
2022/11/09 16:59:23;;;;;;;46.97;26.10;;;;;;;11.22;93.76;100281.62;3559609;80;99146;-89
2022/11/09 17:04:25;;;;;;;55.30;30.02;;;;;;;11.14;94.05;100284.95;3615505;81;26506;-88
2022/11/09 17:09:26;;;;;;;53.63;26.60;;;;;;;11.06;94.56;100280.55;3571046;80;98866;-88
2022/11/09 17:14:30;;;;;;;45.20;24.87;;;;;;;10.99;94.94;100283.84;3553979;81;36224;-87
2022/11/09 17:19:32;;;;;;;48.45;24.57;;;;;;;10.95;95.21;100281.67;3549427;81;99206;-89
2022/11/09 17:24:33;;;;;;;41.95;24.10;;;;;;;10.90;95.37;100276.52;3475665;83;32365;-90
2022/11/09 17:29:36;;;;;;;43.80;23.33;;;;;;;10.87;95.55;100282.77;3403011;84;99130;-88
2022/11/09 17:34:37;;;;;;;39.23;21.40;;;;;;;10.86;95.77;100286.70;3458848;84;31650;-88
2022/11/09 17:39:38;;;;;;;38.63;21.40;;;;;;;10.85;95.66;100283.75;3498835;82;99066;-88
2022/11/09 17:44:38;;;;;;;43.13;22.77;;;;;;;10.88;95.52;100284.34;3472623;84;33437;-88
2022/11/09 17:49:39;;;;;;;37.43;20.90;;;;;;;10.88;95.38;100293.98;3547324;81;99103;-91
2022/11/09 17:54:40;;;;;;;40.13;22.23;;;;;;;10.87;95.38;100304.22;3564612;81;34832;-91
2022/11/09 17:59:41;;;;;;;40.53;22.00;;;;;;;10.88;95.21;100306.38;3582770;80;99070;-87
2022/11/09 18:04:42;;;;;;;41.20;22.53;;;;;;;10.89;95.23;100309.32;3606438;80;34871;-88
2022/11/09 18:09:42;;;;;;;40.73;22.07;;;;;;;10.88;95.20;100307.75;3603312;80;99121;-88
2022/11/09 18:14:43;;;;;;;41.77;22.67;;;;;;;10.88;95.13;100320.94;3563371;81;27368;-88
2022/11/09 18:19:44;;;;;;;38.13;21.40;;;;;;;10.90;95.15;100316.44;3544241;81;99101;-88
2022/11/09 18:24:45;;;;;;;41.00;21.63;;;;;;;10.92;95.19;100321.77;3554105;81;26570;-88
2022/11/09 18:29:45;;;;;;;44.80;24.97;;;;;;;10.95;95.08;100316.08;3576466;81;99335;-88
2022/11/09 18:34:46;;;;;;;41.35;25.30;;;;;;;10.97;94.96;100317.25;3586857;81;34880;-90
2022/11/09 18:39:47;;;;;;;44.20;22.40;;;;;;;10.98;94.91;100318.06;3496193;81;99583;-88
2022/11/09 18:44:48;;;;;;;42.33;22.50;;;;;;;10.97;94.88;100325.52;3491968;83;33141;-88
2022/11/09 18:49:49;;;;;;;41.63;24.02;;;;;;;10.95;94.84;100315.48;3566274;81;98796;-88
2022/11/09 18:54:50;;;;;;;48.70;26.23;;;;;;;10.94;94.83;100314.48;3607294;80;27599;-88
2022/11/09 18:59:52;;;;;;;46.23;25.27;;;;;;;10.93;94.85;100318.41;3570121;81;98895;-90
2022/11/09 19:04:53;;;;;;;45.90;25.23;;;;;;;10.91;94.88;100318.78;3560087;81;33017;-91
2022/11/09 19:09:54;;;;;;;46.47;26.23;;;;;;;10.83;94.90;100310.85;3548548;81;98999;-88
2022/11/09 19:14:55;;;;;;;43.43;25.67;;;;;;;10.86;94.92;100326.62;3557309;82;26447;-90
2022/11/09 19:19:55;;;;;;;49.20;27.20;;;;;;;10.84;94.96;100329.75;3537190;81;99119;-90
2022/11/09 19:24:56;;;;;;;43.87;24.33;;;;;;;10.80;95.04;100337.18;3561741;81;25814;-92
2022/11/09 19:29:57;;;;;;;42.50;24.47;;;;;;;10.77;95.13;100339.91;3501805;82;99139;-88
2022/11/09 19:34:58;;;;;;;47.30;25.90;;;;;;;10.72;95.22;100341.63;3490443;83;26725;-90
2022/11/09 19:39:59;;;;;;;44.88;25.12;;;;;;;10.66;95.21;100349.45;3479188;83;99209;-90
2022/11/09 19:45:00;;;;;;;43.70;24.73;;;;;;;10.59;95.44;100356.28;3488087;83;32771;-89
2022/11/09 19:50:01;;;;;;;53.07;28.93;;;;;;;10.54;95.54;100355.81;3522611;82;99058;-89
2022/11/09 19:55:03;;;;;;;52.70;28.40;;;;;;;10.48;95.68;100357.33;3529934;81;99298;-89
2022/11/09 20:00:06;;;;;;;47.45;26.62;;;;;;;10.44;95.79;100370.25;3494920;83;25959;-89
2022/11/09 20:05:08;;;;;;;48.87;26.70;;;;;;;10.38;95.90;100368.44;3487982;83;99299;-88
2022/11/09 20:10:09;;;;;;;47.20;26.65;;;;;;;10.32;96.08;100378.20;3493331;83;26292;-88
2022/11/09 20:15:10;;;;;;;51.00;29.10;;;;;;;10.28;96.26;100375.98;3489362;82;99002;-88
2022/11/09 20:20:11;;;;;;;49.03;27.60;;;;;;;10.23;96.44;100382.39;3496519;82;33333;-87
2022/11/09 20:25:12;;;;;;;50.67;27.97;;;;;;;10.17;96.63;100383.32;3493659;82;99062;-89
2022/11/09 20:30:13;;;;;;;48.53;26.97;;;;;;;10.12;96.79;100388.34;3499688;83;32566;-88
2022/11/09 20:35:14;;;;;;;49.50;25.67;;;;;;;10.08;96.95;100386.93;3517090;81;98933;-88
2022/11/09 20:40:15;;;;;;;49.30;28.17;;;;;;;10.05;97.06;100381.39;3563204;81;32545;-87
2022/11/09 20:45:16;;;;;;;49.03;26.70;;;;;;;10.00;97.08;100379.75;3556747;81;98836;-88
2022/11/09 20:50:17;;;;;;;47.93;28.17;;;;;;;9.94;97.21;100385.37;3566473;82;32612;-87
2022/11/09 20:55:18;;;;;;;51.42;28.27;;;;;;;9.91;97.29;100385.30;3559935;81;98550;-88
2022/11/09 21:00:19;;;;;;;56.83;31.30;;;;;;;9.85;97.48;100384.04;3565894;82;32603;-86
2022/11/09 21:05:20;;;;;;;50.53;28.27;;;;;;;9.80;97.61;100390.66;3568441;81;99069;-87
2022/11/09 21:10:21;;;;;;;56.23;29.72;;;;;;;9.74;97.76;100381.17;3581706;82;32567;-90
2022/11/09 21:15:22;;;;;;;52.07;28.70;;;;;;;9.71;97.81;100390.74;3576680;81;98591;-88
2022/11/09 21:20:22;;;;;;;57.83;29.50;;;;;;;9.66;98.01;100384.19;3595572;82;31753;-88
2022/11/09 21:30:42;;;;;;;57.80;30.48;;;;;;;9.49;98.16;100385.51;3589932;82;32660;-88
2022/11/09 21:35:45;;;;;;;55.10;27.77;;;;;;;9.49;98.36;100402.59;3571836;81;98791;-88
2022/11/09 21:40:46;;;;;;;57.78;31.55;;;;;;;9.43;98.54;100397.98;3568569;82;32685;-90
2022/11/09 21:45:52;;;;;;;55.73;29.70;;;;;;;9.38;98.78;100394.77;3552445;82;98370;-90
2022/11/09 21:50:57;;;;;;;64.27;32.83;;;;;;;9.32;98.96;100403.89;3614661;81;26785;-89
2022/11/09 21:56:01;;;;;;;59.70;31.20;;;;;;;9.26;99.05;100397.13;3597694;81;98721;-89
2022/11/09 22:01:09;;;;;;;62.33;31.00;;;;;;;9.24;99.48;100395.91;3577230;81;32619;-90
2022/11/09 22:06:11;;;;;;;60.55;30.27;;;;;;;9.22;99.78;100399.62;3620517;79;98949;-88
2022/11/09 22:11:18;;;;;;;55.55;29.90;;;;;;;9.23;100.00;100407.50;3580088;81;32685;-90
2022/11/09 22:16:22;;;;;;;55.23;29.32;;;;;;;9.25;100.00;100407.11;3648701;79;98805;-89
2022/11/09 22:21:23;;;;;;;57.03;29.42;;;;;;;9.28;100.00;100414.62;3639561;79;32658;-89
2022/11/09 22:26:23;;;;;;;53.27;27.10;;;;;;;9.30;100.00;100416.41;3644939;80;98615;-90
2022/11/09 22:31:25;;;;;;;54.40;30.87;;;;;;;9.32;100.00;100410.76;3635068;79;31603;-90
2022/11/09 22:36:26;;;;;;;51.15;27.48;;;;;;;9.36;100.00;100417.67;3653497;79;98426;-89
2022/11/09 22:41:27;;;;;;;49.57;27.20;;;;;;;9.41;100.00;100425.03;3596584;81;31608;-89
2022/11/09 22:46:27;;;;;;;55.93;30.27;;;;;;;9.44;100.00;100423.50;3649668;80;98979;-89
2022/11/09 22:51:28;;;;;;;51.77;27.87;;;;;;;9.47;100.00;100424.92;3650136;79;32375;-90
2022/11/09 22:56:29;;;;;;;52.03;27.17;;;;;;;9.48;100.00;100425.13;3647342;79;99009;-88
2022/11/09 23:01:30;;;;;;;53.13;26.93;;;;;;;9.49;100.00;100421.22;3656891;79;31636;-90
2022/11/09 23:06:32;;;;;;;50.63;26.57;;;;;;;9.49;100.00;100424.56;3615137;81;98984;-89
2022/11/09 23:11:33;;;;;;;47.85;26.02;;;;;;;9.50;100.00;100424.20;3620894;81;32062;-89
2022/11/09 23:16:33;;;;;;;51.53;27.53;;;;;;;9.51;100.00;100435.40;3613786;81;99205;-90